createdAt,value
2023-04-18T00:07:41.482Z,7.60
2023-04-18T00:17:43.763Z,7.56
2023-04-18T00:27:45.680Z,7.53
2023-04-18T00:37:47.584Z,7.65
2023-04-18T00:47:51.866Z,7.64
2023-04-18T00:57:53.853Z,7.61
2023-04-18T01:08:01.301Z,7.66
2023-04-18T01:18:04.095Z,7.72
2023-04-18T01:28:07.478Z,7.65
2023-04-18T01:38:10.423Z,7.67
2023-04-18T01:48:13.480Z,7.67
2023-04-18T01:58:25.815Z,7.63
2023-04-18T02:08:28.796Z,7.68
2023-04-18T02:18:30.809Z,7.60
2023-04-18T02:28:33.028Z,7.55
2023-04-18T02:38:34.902Z,7.52
2023-04-18T02:48:37.965Z,7.55
2023-04-18T02:58:40.916Z,7.52
2023-04-18T03:08:42.882Z,7.49
2023-04-18T03:18:46.841Z,7.48
2023-04-18T03:28:49.739Z,7.50
2023-04-18T03:38:51.704Z,7.54
2023-04-18T03:48:53.615Z,7.59
2023-04-18T03:58:58.906Z,7.65
2023-04-18T04:09:01.386Z,7.68
2023-04-18T04:19:04.816Z,7.74
2023-04-18T04:29:06.679Z,7.80
2023-04-18T04:39:09.887Z,7.78
2023-04-18T04:49:12.940Z,7.81
2023-04-18T04:59:15.170Z,7.84
2023-04-18T05:09:18.125Z,7.87
2023-04-18T05:19:20.162Z,7.98
2023-04-18T05:29:24.329Z,8.16
2023-04-18T05:39:27.358Z,8.34
2023-04-18T05:49:29.730Z,8.48
2023-04-18T05:59:31.721Z,8.66
2023-04-18T06:09:39.698Z,8.92
2023-04-18T06:19:41.617Z,9.03
2023-04-18T06:29:51.032Z,8.91
2023-04-18T06:39:55.202Z,9.04
2023-04-18T06:50:02.213Z,9.32
2023-04-18T07:00:05.576Z,9.47
2023-04-18T07:10:09.896Z,9.45
2023-04-18T07:20:13.081Z,9.48
2023-04-18T07:30:16.589Z,9.56
2023-04-18T07:40:24.764Z,9.52
2023-04-18T07:50:27.585Z,9.66
2023-04-18T08:00:32.839Z,10.18
2023-04-18T08:11:00.676Z,10.82
2023-04-18T08:21:02.694Z,11.15
2023-04-18T08:31:04.654Z,11.45
2023-04-18T08:41:06.775Z,12.46
2023-04-18T08:51:34.624Z,12.78
2023-04-18T09:01:57.518Z,12.59
2023-04-18T09:12:14.859Z,13.82
2023-04-18T09:22:18.369Z,13.85
2023-04-18T09:32:27.303Z,14.85
2023-04-18T09:42:36.400Z,14.38
2023-04-18T09:53:02.027Z,14.69
2023-04-18T10:03:09.973Z,15.02
2023-04-18T10:13:19.827Z,14.22
2023-04-18T10:23:41.175Z,14.47
2023-04-18T10:34:03.244Z,14.00
2023-04-18T10:44:09.839Z,14.03
2023-04-18T10:54:18.096Z,13.75
2023-04-18T11:04:26.023Z,13.89
2023-04-18T11:14:43.847Z,14.30
2023-04-18T11:24:45.946Z,14.47
2023-04-18T11:34:53.646Z,14.63
2023-04-18T11:44:55.942Z,14.20
2023-04-18T11:55:31.037Z,14.25
2023-04-18T12:05:36.442Z,14.38
2023-04-18T12:15:47.463Z,14.49
2023-04-18T12:26:23.138Z,14.61
2023-04-18T12:36:26.365Z,14.48
2023-04-18T12:46:35.449Z,14.34
2023-04-18T12:56:37.538Z,14.56
2023-04-18T13:06:59.746Z,14.27
2023-04-18T13:17:01.865Z,14.43
2023-04-18T13:27:14.944Z,14.56
2023-04-18T13:37:17.254Z,14.72
2023-04-18T13:47:19.511Z,14.75
2023-04-18T13:57:23.462Z,15.01
2023-04-18T14:07:28.770Z,14.73
2023-04-18T14:17:31.493Z,14.84
2023-04-18T14:27:35.527Z,14.93
2023-04-18T14:37:57.641Z,14.92
2023-04-18T14:48:07.855Z,14.71
2023-04-18T14:58:14.920Z,14.78
2023-04-18T15:08:24.883Z,14.69
2023-04-18T15:18:29.096Z,14.53
2023-04-18T15:28:31.767Z,14.39
2023-04-18T15:38:33.764Z,14.22
2023-04-18T15:48:38.888Z,14.09
2023-04-18T15:58:40.881Z,14.11
2023-04-18T16:09:08.446Z,13.99
2023-04-18T16:19:10.428Z,13.92
2023-04-18T16:29:12.625Z,13.83
2023-04-18T16:39:25.979Z,13.74
2023-04-18T16:49:29.260Z,13.84
2023-04-18T16:59:39.799Z,13.73
2023-04-18T17:09:47.454Z,13.56
2023-04-18T17:19:55.981Z,13.50
2023-04-18T17:30:00.239Z,13.35
2023-04-18T17:40:12.121Z,13.23
2023-04-18T17:50:15.440Z,13.13
2023-04-18T18:00:23.721Z,12.97
2023-04-18T18:10:27.803Z,12.86
2023-04-18T18:20:31.520Z,12.84
2023-04-18T18:30:40.120Z,12.69
2023-04-18T18:41:03.716Z,12.64
2023-04-18T18:51:13.819Z,12.55
2023-04-18T19:01:31.952Z,12.41
2023-04-18T19:11:34.171Z,12.29
2023-04-18T19:21:40.583Z,12.20
2023-04-18T19:31:44.603Z,12.17
2023-04-18T19:41:47.289Z,12.10
2023-04-18T19:51:52.187Z,11.90
2023-04-18T20:01:54.671Z,11.76
2023-04-18T20:12:00.950Z,11.68
2023-04-18T20:22:06.670Z,11.72
2023-04-18T20:32:15.162Z,11.74
2023-04-18T20:42:19.151Z,11.53
2023-04-18T20:52:40.106Z,11.36
2023-04-18T21:03:00.849Z,11.14
2023-04-18T21:13:34.869Z,11.01
2023-04-18T21:23:46.879Z,10.83
2023-04-18T21:33:52.918Z,10.72
2023-04-18T21:43:54.940Z,10.58
2023-04-18T21:53:56.924Z,10.51
2023-04-18T22:03:58.943Z,10.37
2023-04-18T22:14:01.728Z,10.24
2023-04-18T22:24:03.794Z,10.18
2023-04-18T22:34:05.957Z,10.01
2023-04-18T22:44:14.342Z,9.86
2023-04-18T22:54:16.618Z,9.81
2023-04-18T23:04:19.825Z,9.74
2023-04-18T23:14:22.811Z,9.64
2023-04-18T23:24:24.789Z,9.39
2023-04-18T23:34:28.689Z,9.06
2023-04-18T23:44:31.888Z,8.88
2023-04-18T23:54:37.848Z,8.72
